createdAt,value
2023-05-05T00:00:21.804Z,4179.00
2023-05-05T00:01:21.773Z,4190.00
2023-05-05T00:02:21.809Z,4188.00
2023-05-05T00:03:21.961Z,4205.00
2023-05-05T00:04:22.105Z,4190.00
2023-05-05T00:05:21.835Z,4182.00
2023-05-05T00:06:21.847Z,4174.00
2023-05-05T00:07:21.819Z,4167.00
2023-05-05T00:08:21.838Z,4185.00
2023-05-05T00:09:21.814Z,4162.00
2023-05-05T00:10:21.826Z,4151.00
2023-05-05T00:11:21.803Z,4131.00
2023-05-05T00:12:21.791Z,4107.00
2023-05-05T00:13:21.834Z,4096.00
2023-05-05T00:14:21.796Z,4089.00
2023-05-05T00:15:21.795Z,4085.00
2023-05-05T00:16:21.827Z,4056.00
2023-05-05T00:17:21.751Z,4049.00
2023-05-05T00:18:21.773Z,4045.00
2023-05-05T00:19:21.769Z,4029.00
2023-05-05T00:20:21.772Z,4017.00
2023-05-05T00:21:21.755Z,4028.00
2023-05-05T00:22:21.733Z,4033.00
2023-05-05T00:23:21.751Z,4018.00
2023-05-05T00:24:21.723Z,4019.00
2023-05-05T00:25:21.768Z,4040.00
2023-05-05T00:26:21.754Z,4023.00
2023-05-05T00:27:21.749Z,4029.00
2023-05-05T00:28:21.779Z,4038.00
2023-05-05T00:29:21.776Z,4038.00
2023-05-05T00:30:21.782Z,4047.00
2023-05-05T00:31:21.828Z,4073.00
2023-05-05T00:32:21.838Z,4061.00
2023-05-05T00:33:21.798Z,4052.00
2023-05-05T00:34:21.815Z,4049.00
2023-05-05T00:35:21.808Z,4048.00
2023-05-05T00:36:21.836Z,4036.00
2023-05-05T00:37:21.823Z,4043.00
2023-05-05T00:38:21.831Z,4041.00
2023-05-05T00:39:21.804Z,4065.00
2023-05-05T00:40:21.829Z,4062.00
2023-05-05T00:41:21.817Z,4082.00
2023-05-05T00:42:21.797Z,4074.00
2023-05-05T00:43:21.776Z,4076.00
2023-05-05T00:44:21.770Z,4067.00
2023-05-05T00:45:21.804Z,4087.00
2023-05-05T00:46:21.829Z,4067.00
2023-05-05T00:47:21.766Z,4054.00
2023-05-05T00:48:21.795Z,4067.00
2023-05-05T00:49:21.802Z,4054.00
2023-05-05T00:50:21.739Z,4070.00
2023-05-05T00:51:21.778Z,4068.00
2023-05-05T00:52:21.743Z,4033.00
2023-05-05T00:53:21.757Z,4049.00
2023-05-05T00:54:21.763Z,4042.00
2023-05-05T00:55:21.779Z,4036.00
2023-05-05T00:56:21.746Z,4031.00
2023-05-05T00:57:21.757Z,4026.00
2023-05-05T00:58:21.728Z,4014.00
2023-05-05T00:59:21.717Z,4004.00
2023-05-05T01:00:21.695Z,4033.00
2023-05-05T01:01:21.784Z,4014.00
2023-05-05T01:02:21.713Z,4011.00
2023-05-05T01:03:21.730Z,4028.00
2023-05-05T01:04:21.708Z,4037.00
2023-05-05T01:05:21.704Z,4047.00
2023-05-05T01:06:21.681Z,4040.00
2023-05-05T01:07:21.668Z,4037.00
2023-05-05T01:08:21.661Z,4025.00
2023-05-05T01:09:21.632Z,4028.00
2023-05-05T01:10:21.850Z,4038.00
2023-05-05T01:11:21.639Z,4045.00
2023-05-05T01:12:21.627Z,4045.00
2023-05-05T01:13:21.637Z,4059.00
2023-05-05T01:14:21.675Z,4023.00
2023-05-05T01:15:21.627Z,4050.00
2023-05-05T01:16:21.675Z,4018.00
2023-05-05T01:17:21.596Z,4035.00
2023-05-05T01:18:21.605Z,4044.00
2023-05-05T01:19:21.622Z,4024.00
2023-05-05T01:20:21.614Z,4022.00
2023-05-05T01:21:21.608Z,3990.00
2023-05-05T01:22:21.622Z,3970.00
2023-05-05T01:23:21.599Z,3966.00
2023-05-05T01:24:21.627Z,3973.00
2023-05-05T01:25:21.650Z,3973.00
2023-05-05T01:26:21.620Z,3981.00
2023-05-05T01:27:21.620Z,3976.00
2023-05-05T01:28:21.615Z,3968.00
2023-05-05T01:29:21.600Z,3975.00
2023-05-05T01:30:21.581Z,3961.00
2023-05-05T01:31:21.659Z,3950.00
2023-05-05T01:32:21.602Z,3938.00
2023-05-05T01:33:21.593Z,3956.00
2023-05-05T01:34:21.610Z,3945.00
2023-05-05T01:35:21.585Z,3932.00
2023-05-05T01:36:21.596Z,3943.00
2023-05-05T01:37:21.565Z,3931.00
2023-05-05T01:38:21.558Z,3942.00
2023-05-05T01:39:21.590Z,3924.00
2023-05-05T01:40:21.549Z,3931.00
2023-05-05T01:41:21.572Z,3925.00
2023-05-05T01:42:21.555Z,3912.00
2023-05-05T01:43:21.541Z,3904.00
2023-05-05T01:44:21.550Z,3910.00
2023-05-05T01:45:21.544Z,3919.00
2023-05-05T01:46:21.654Z,3905.00
2023-05-05T01:47:21.513Z,3909.00
2023-05-05T01:48:21.545Z,3905.00
2023-05-05T01:49:21.547Z,3906.00
2023-05-05T01:50:21.500Z,3901.00
2023-05-05T01:51:21.505Z,3897.00
2023-05-05T01:52:21.533Z,3898.00
2023-05-05T01:53:21.518Z,3917.00
2023-05-05T01:54:21.506Z,3920.00
2023-05-05T01:55:21.538Z,3905.00
2023-05-05T01:56:21.513Z,3906.00
2023-05-05T01:57:21.521Z,3895.00
2023-05-05T01:58:21.516Z,3901.00
2023-05-05T01:59:21.520Z,3909.00
2023-05-05T02:00:21.521Z,3916.00
2023-05-05T02:01:21.615Z,3904.00
2023-05-05T02:02:21.523Z,3915.00
2023-05-05T02:03:21.574Z,3911.00
2023-05-05T02:04:21.525Z,3905.00
2023-05-05T02:05:21.528Z,3897.00
2023-05-05T02:06:21.533Z,3906.00
2023-05-05T02:07:21.487Z,3904.00
2023-05-05T02:08:21.526Z,3889.00
2023-05-05T02:09:21.515Z,3882.00
2023-05-05T02:10:21.512Z,3895.00
2023-05-05T02:11:21.477Z,3900.00
2023-05-05T02:12:21.483Z,3893.00
2023-05-05T02:13:21.555Z,3878.00
2023-05-05T02:14:21.479Z,3866.00
2023-05-05T02:15:21.473Z,3876.00
2023-05-05T02:16:21.498Z,3878.00
2023-05-05T02:17:21.486Z,3884.00
2023-05-05T02:18:21.490Z,3883.00
2023-05-05T02:19:21.513Z,3875.00
2023-05-05T02:20:21.514Z,3875.00
2023-05-05T02:21:21.512Z,3863.00
2023-05-05T02:22:21.536Z,3867.00
2023-05-05T02:23:21.521Z,3872.00
2023-05-05T02:24:21.531Z,3866.00
2023-05-05T02:25:21.494Z,3865.00
2023-05-05T02:26:21.542Z,3854.00
2023-05-05T02:27:21.557Z,3871.00
2023-05-05T02:28:21.570Z,3882.00
2023-05-05T02:29:21.566Z,3876.00
2023-05-05T02:30:21.524Z,3868.00
2023-05-05T02:31:21.580Z,3868.00
2023-05-05T02:32:21.619Z,3882.00
2023-05-05T02:33:21.536Z,3891.00
2023-05-05T02:34:21.536Z,3887.00
2023-05-05T02:35:21.545Z,3886.00
2023-05-05T02:36:21.577Z,3890.00
2023-05-05T02:37:21.551Z,3882.00
2023-05-05T02:38:21.588Z,3910.00
2023-05-05T02:39:22.143Z,3912.00
2023-05-05T02:40:21.580Z,3900.00
2023-05-05T02:41:21.574Z,3927.00
2023-05-05T02:42:21.584Z,3896.00
2023-05-05T02:43:21.618Z,3878.00
2023-05-05T02:44:21.559Z,3887.00
2023-05-05T02:45:21.572Z,3881.00
2023-05-05T02:46:21.665Z,3855.00
2023-05-05T02:47:21.592Z,3865.00
2023-05-05T02:48:21.599Z,3854.00
2023-05-05T02:49:21.597Z,3844.00
2023-05-05T02:50:21.579Z,3826.00
2023-05-05T02:51:21.584Z,3861.00
2023-05-05T02:52:21.615Z,3859.00
2023-05-05T02:53:21.565Z,3855.00
2023-05-05T02:54:21.568Z,3845.00
2023-05-05T02:55:21.566Z,3829.00
2023-05-05T02:56:21.601Z,3847.00
2023-05-05T02:57:21.594Z,3841.00
2023-05-05T02:58:22.146Z,3842.00
2023-05-05T02:59:21.602Z,3843.00
2023-05-05T03:00:21.584Z,3838.00
2023-05-05T03:01:21.596Z,3834.00
2023-05-05T03:02:21.618Z,3842.00
2023-05-05T03:03:21.753Z,3840.00
2023-05-05T03:04:21.603Z,3846.00
2023-05-05T03:05:21.583Z,3839.00
2023-05-05T03:06:21.555Z,3850.00
2023-05-05T03:07:21.557Z,3848.00
2023-05-05T03:08:21.576Z,3847.00
2023-05-05T03:09:21.555Z,3851.00
2023-05-05T03:10:21.578Z,3835.00
2023-05-05T03:11:21.534Z,3861.00
2023-05-05T03:12:21.556Z,3852.00
2023-05-05T03:13:21.554Z,3849.00
2023-05-05T03:14:21.553Z,3831.00
2023-05-05T03:15:21.543Z,3832.00
2023-05-05T03:16:21.609Z,3821.00
2023-05-05T03:17:21.641Z,3820.00
2023-05-05T03:18:21.590Z,3828.00
2023-05-05T03:19:21.602Z,3822.00
2023-05-05T03:20:21.613Z,3804.00
2023-05-05T03:21:21.628Z,3811.00
2023-05-05T03:22:21.587Z,3801.00
2023-05-05T03:23:21.624Z,3798.00
2023-05-05T03:24:21.591Z,3801.00
2023-05-05T03:25:21.651Z,3779.00
2023-05-05T03:26:21.627Z,3764.00
2023-05-05T03:27:21.651Z,3760.00
2023-05-05T03:28:21.674Z,3743.00
2023-05-05T03:29:21.650Z,3745.00
2023-05-05T03:30:21.674Z,3743.00
2023-05-05T03:31:21.704Z,3733.00
2023-05-05T03:32:21.688Z,3733.00
2023-05-05T03:33:21.699Z,3725.00
2023-05-05T03:34:21.714Z,3734.00
2023-05-05T03:35:21.663Z,3720.00
2023-05-05T03:36:21.674Z,3738.00
2023-05-05T03:37:21.683Z,3741.00
2023-05-05T03:38:21.736Z,3742.00
2023-05-05T03:39:21.681Z,3737.00
2023-05-05T03:40:29.611Z,3729.00
2023-05-05T03:41:22.710Z,3730.00
2023-05-05T03:42:21.698Z,3733.00
2023-05-05T03:43:21.684Z,3735.00
2023-05-05T03:44:21.686Z,3742.00
2023-05-05T03:45:21.668Z,3750.00
2023-05-05T03:46:21.742Z,3758.00
2023-05-05T03:47:21.687Z,3754.00
2023-05-05T03:48:21.645Z,3759.00
2023-05-05T03:49:21.636Z,3745.00
2023-05-05T03:50:21.660Z,3728.00
2023-05-05T03:51:21.648Z,3720.00
2023-05-05T03:52:21.666Z,3734.00
2023-05-05T03:53:21.646Z,3713.00
2023-05-05T03:54:21.606Z,3708.00
2023-05-05T03:55:21.622Z,3736.00
2023-05-05T03:56:21.638Z,3738.00
2023-05-05T03:57:21.587Z,3733.00
2023-05-05T03:58:21.595Z,3747.00
2023-05-05T03:59:21.612Z,3755.00
2023-05-05T04:00:21.604Z,3748.00
2023-05-05T04:01:21.631Z,3748.00
2023-05-05T04:02:21.615Z,3749.00
2023-05-05T04:03:21.745Z,3736.00
2023-05-05T04:04:21.586Z,3739.00
2023-05-05T04:05:21.608Z,3727.00
2023-05-05T04:06:21.590Z,3735.00
2023-05-05T04:07:21.598Z,3714.00
2023-05-05T04:08:21.563Z,3721.00
2023-05-05T04:09:21.584Z,3723.00
2023-05-05T04:10:21.588Z,3716.00
2023-05-05T04:11:21.619Z,3718.00
2023-05-05T04:12:21.589Z,3717.00
2023-05-05T04:13:21.570Z,3711.00
2023-05-05T04:14:21.586Z,3701.00
2023-05-05T04:15:21.573Z,3704.00
2023-05-05T04:16:21.690Z,3707.00
2023-05-05T04:17:21.613Z,3700.00
2023-05-05T04:18:21.623Z,3706.00
2023-05-05T04:19:21.612Z,3697.00
2023-05-05T04:20:21.626Z,3699.00
2023-05-05T04:21:21.628Z,3691.00
2023-05-05T04:22:21.638Z,3698.00
2023-05-05T04:23:21.638Z,3696.00
2023-05-05T04:24:21.652Z,3691.00
2023-05-05T04:25:21.650Z,3704.00
2023-05-05T04:26:21.629Z,3693.00
2023-05-05T04:27:21.620Z,3693.00
2023-05-05T04:28:22.264Z,3708.00
2023-05-05T04:29:21.641Z,3709.00
2023-05-05T04:30:21.639Z,3703.00
2023-05-05T04:31:21.740Z,3711.00
2023-05-05T04:32:21.647Z,3709.00
2023-05-05T04:33:21.641Z,3716.00
2023-05-05T04:34:21.606Z,3703.00
2023-05-05T04:35:21.619Z,3694.00
2023-05-05T04:36:21.616Z,3693.00
2023-05-05T04:37:21.686Z,3691.00
2023-05-05T04:38:21.672Z,3699.00
2023-05-05T04:39:21.679Z,3700.00
2023-05-05T04:40:21.687Z,3702.00
2023-05-05T04:41:21.710Z,3706.00
2023-05-05T04:42:21.742Z,3702.00
2023-05-05T04:43:21.740Z,3699.00
2023-05-05T04:44:21.723Z,3701.00
2023-05-05T04:45:21.752Z,3707.00
2023-05-05T04:46:21.806Z,3703.00
2023-05-05T04:47:21.766Z,3701.00
2023-05-05T04:48:21.753Z,3701.00
2023-05-05T04:49:21.728Z,3695.00
2023-05-05T04:50:21.756Z,3696.00
2023-05-05T04:51:21.753Z,3690.00
2023-05-05T04:52:21.755Z,3696.00
2023-05-05T04:53:21.749Z,3710.00
2023-05-05T04:54:21.740Z,3689.00
2023-05-05T04:55:21.720Z,3676.00
2023-05-05T04:56:21.717Z,3681.00
2023-05-05T04:57:21.737Z,3678.00
2023-05-05T04:58:21.725Z,3688.00
2023-05-05T04:59:21.717Z,3689.00
2023-05-05T05:00:21.700Z,3673.00
2023-05-05T05:01:29.829Z,3670.00
2023-05-05T05:02:21.980Z,3673.00
2023-05-05T05:03:21.817Z,3678.00
2023-05-05T05:04:21.713Z,3687.00
2023-05-05T05:05:21.727Z,3649.00
2023-05-05T05:06:21.735Z,3576.00
2023-05-05T05:07:21.698Z,3564.00
2023-05-05T05:08:21.691Z,3535.00
2023-05-05T05:09:21.645Z,3558.00
2023-05-05T05:10:21.648Z,3590.00
2023-05-05T05:11:21.710Z,3622.00
2023-05-05T05:12:21.778Z,3623.00
2023-05-05T05:13:21.848Z,3628.00
2023-05-05T05:14:21.855Z,3644.00
2023-05-05T05:15:21.841Z,3638.00
2023-05-05T05:16:21.832Z,3649.00
2023-05-05T05:17:21.808Z,3653.00
2023-05-05T05:18:21.813Z,3656.00
2023-05-05T05:19:21.822Z,3652.00
2023-05-05T05:20:21.837Z,3654.00
2023-05-05T05:21:21.843Z,3662.00
2023-05-05T05:22:21.893Z,3667.00
2023-05-05T05:23:21.856Z,3679.00
2023-05-05T05:24:21.858Z,3664.00
2023-05-05T05:25:21.854Z,3679.00
2023-05-05T05:26:21.862Z,3709.00
2023-05-05T05:27:21.937Z,3709.00
2023-05-05T05:28:21.925Z,3758.00
2023-05-05T05:29:22.007Z,3778.00
2023-05-05T05:30:21.980Z,3737.00
2023-05-05T05:31:22.103Z,4169.00
2023-05-05T05:32:22.259Z,4155.00
2023-05-05T05:33:22.118Z,4211.00
2023-05-05T05:34:22.140Z,4056.00
2023-05-05T05:35:22.238Z,3940.00
2023-05-05T05:36:22.322Z,3902.00
2023-05-05T05:37:22.878Z,3852.00
2023-05-05T05:38:22.436Z,3844.00
2023-05-05T05:39:22.370Z,3806.00
2023-05-05T05:40:22.391Z,3703.00
2023-05-05T05:41:22.449Z,3644.00
2023-05-05T05:42:22.499Z,3592.00
2023-05-05T05:43:22.484Z,3509.00
2023-05-05T05:44:22.548Z,3490.00
2023-05-05T05:45:22.632Z,3560.00
2023-05-05T05:47:41.785Z,500.00
2023-05-05T05:48:41.584Z,500.00
2023-05-05T05:49:41.610Z,500.00
2023-05-05T05:50:41.578Z,500.00
2023-05-05T05:51:41.562Z,500.00
2023-05-05T05:52:41.810Z,503.00
2023-05-05T05:53:41.604Z,502.00
2023-05-05T05:54:41.529Z,535.00
2023-05-05T05:55:41.515Z,574.00
2023-05-05T05:56:41.526Z,595.00
2023-05-05T05:57:42.457Z,585.00
2023-05-05T05:58:41.486Z,576.00
2023-05-05T05:59:41.548Z,571.00
2023-05-05T06:00:41.483Z,585.00
2023-05-05T06:01:41.504Z,582.00
2023-05-05T06:02:41.524Z,598.00
2023-05-05T06:03:41.511Z,592.00
2023-05-05T06:04:41.546Z,595.00
2023-05-05T06:05:41.493Z,609.00
2023-05-05T06:06:41.440Z,606.00
2023-05-05T06:07:41.819Z,607.00
2023-05-05T06:08:41.410Z,629.00
2023-05-05T06:09:41.394Z,603.00
2023-05-05T06:10:41.407Z,596.00
2023-05-05T06:11:41.421Z,577.00
2023-05-05T06:12:41.771Z,559.00
2023-05-05T06:13:41.385Z,535.00
2023-05-05T06:14:41.364Z,526.00
2023-05-05T06:15:41.412Z,517.00
2023-05-05T06:16:41.341Z,512.00
2023-05-05T06:17:41.404Z,511.00
2023-05-05T06:18:41.373Z,506.00
2023-05-05T06:19:41.323Z,504.00
2023-05-05T06:20:41.383Z,504.00
2023-05-05T06:21:41.327Z,503.00
2023-05-05T06:22:41.333Z,502.00
2023-05-05T06:23:41.338Z,504.00
2023-05-05T06:24:41.342Z,500.00
2023-05-05T06:25:41.356Z,500.00
2023-05-05T06:26:41.385Z,500.00
2023-05-05T06:27:41.456Z,509.00
2023-05-05T06:28:41.512Z,521.00
2023-05-05T06:29:41.552Z,500.00
2023-05-05T06:30:41.574Z,500.00
2023-05-05T06:31:41.644Z,500.00
2023-05-05T06:32:41.701Z,507.00
2023-05-05T06:33:41.720Z,502.00
2023-05-05T06:34:41.774Z,509.00
2023-05-05T06:35:41.819Z,512.00
2023-05-05T06:36:41.937Z,501.00
2023-05-05T06:37:41.903Z,527.00
2023-05-05T06:38:42.014Z,541.00
2023-05-05T06:39:42.027Z,552.00
2023-05-05T06:40:41.995Z,599.00
2023-05-05T06:41:42.050Z,558.00
2023-05-05T06:42:42.053Z,551.00
2023-05-05T06:43:42.056Z,499.00
2023-05-05T06:44:42.058Z,513.00
2023-05-05T06:45:43.657Z,520.00
2023-05-05T06:46:42.165Z,589.00
2023-05-05T06:47:42.410Z,643.00
2023-05-05T06:48:42.212Z,595.00
2023-05-05T06:49:42.299Z,532.00
2023-05-05T06:50:42.303Z,481.00
2023-05-05T06:51:42.930Z,483.00
2023-05-05T06:52:42.836Z,476.00
2023-05-05T06:53:42.475Z,505.00
2023-05-05T06:54:42.507Z,500.00
2023-05-05T06:55:42.574Z,541.00
2023-05-05T06:56:42.611Z,536.00
2023-05-05T06:57:42.723Z,518.00
2023-05-05T06:58:42.710Z,500.00
2023-05-05T06:59:42.713Z,497.00
2023-05-05T07:00:42.808Z,499.00
2023-05-05T07:01:42.853Z,496.00
2023-05-05T07:02:43.359Z,501.00
2023-05-05T07:03:43.047Z,504.00
2023-05-05T07:04:43.022Z,497.00
2023-05-05T07:05:43.072Z,504.00
2023-05-05T07:06:43.112Z,498.00
2023-05-05T07:07:43.223Z,522.00
2023-05-05T07:08:43.218Z,705.00
2023-05-05T07:09:43.278Z,777.00
2023-05-05T07:10:43.323Z,824.00
2023-05-05T07:11:43.296Z,686.00
2023-05-05T07:12:43.518Z,665.00
2023-05-05T07:13:43.356Z,614.00
2023-05-05T07:14:43.356Z,644.00
2023-05-05T07:15:43.386Z,624.00
2023-05-05T07:16:43.497Z,618.00
2023-05-05T07:17:43.657Z,586.00
2023-05-05T07:18:43.430Z,578.00
2023-05-05T07:19:43.592Z,525.00
2023-05-05T07:20:43.400Z,501.00
2023-05-05T07:21:43.405Z,652.00
2023-05-05T07:22:43.432Z,587.00
2023-05-05T07:23:43.553Z,549.00
2023-05-05T07:24:43.429Z,649.00
2023-05-05T07:25:43.531Z,924.00
2023-05-05T07:26:43.531Z,1113.00
2023-05-05T07:27:43.805Z,795.00
2023-05-05T07:28:43.578Z,647.00
2023-05-05T07:29:43.636Z,1568.00
2023-05-05T07:30:43.588Z,1150.00
2023-05-05T07:31:43.652Z,1079.00
2023-05-05T07:32:43.747Z,2905.00
2023-05-05T07:33:43.768Z,2072.00
2023-05-05T07:34:43.791Z,2374.00
2023-05-05T07:35:43.882Z,2417.00
2023-05-05T07:36:43.863Z,1765.00
2023-05-05T07:37:43.995Z,2095.00
2023-05-05T07:38:43.952Z,2172.00
2023-05-05T07:39:44.081Z,1531.00
2023-05-05T07:40:44.073Z,1411.00
2023-05-05T07:41:44.031Z,1656.00
2023-05-05T07:42:44.303Z,1514.00
2023-05-05T07:43:44.686Z,1322.00
2023-05-05T07:44:44.173Z,1025.00
2023-05-05T07:45:44.175Z,1037.00
2023-05-05T07:46:44.191Z,1238.00
2023-05-05T07:47:44.216Z,1275.00
2023-05-05T07:48:44.226Z,1166.00
2023-05-05T07:49:44.249Z,586.00
2023-05-05T07:50:44.241Z,434.00
2023-05-05T07:51:44.331Z,400.00
2023-05-05T07:52:48.277Z,400.00
2023-05-05T07:53:45.327Z,400.00
2023-05-05T07:54:44.351Z,400.00
2023-05-05T07:55:44.456Z,400.00
2023-05-05T07:56:44.441Z,400.00
2023-05-05T07:57:44.529Z,400.00
2023-05-05T07:58:44.569Z,400.00
2023-05-05T07:59:44.633Z,400.00
2023-05-05T08:00:44.697Z,444.00
2023-05-05T08:01:44.755Z,549.00
2023-05-05T08:02:44.892Z,563.00
2023-05-05T08:03:44.937Z,403.00
2023-05-05T08:04:44.949Z,400.00
2023-05-05T08:05:44.983Z,400.00
2023-05-05T08:06:45.021Z,400.00
2023-05-05T08:07:45.042Z,400.00
2023-05-05T08:08:45.058Z,404.00
2023-05-05T08:09:45.110Z,447.00
2023-05-05T08:10:45.186Z,567.00
2023-05-05T08:11:45.340Z,736.00
2023-05-05T08:12:45.382Z,755.00
2023-05-05T08:13:45.350Z,650.00
2023-05-05T08:14:45.409Z,612.00
2023-05-05T08:15:45.567Z,646.00
2023-05-05T08:16:45.594Z,599.00
2023-05-05T08:17:45.663Z,530.00
2023-05-05T08:18:45.672Z,570.00
2023-05-05T08:19:45.702Z,492.00
2023-05-05T08:20:45.792Z,493.00
2023-05-05T08:21:47.711Z,452.00
2023-05-05T08:22:45.890Z,451.00
2023-05-05T08:23:45.934Z,445.00
2023-05-05T08:24:45.926Z,467.00
2023-05-05T08:25:45.982Z,500.00
2023-05-05T08:26:46.001Z,500.00
2023-05-05T08:27:46.089Z,500.00
2023-05-05T08:28:46.037Z,501.00
2023-05-05T08:29:46.030Z,500.00
2023-05-05T08:30:46.078Z,502.00
2023-05-05T08:31:46.097Z,514.00
2023-05-05T08:32:46.365Z,660.00
2023-05-05T08:33:46.108Z,657.00
2023-05-05T08:34:46.112Z,547.00
2023-05-05T08:35:46.208Z,501.00
2023-05-05T08:36:46.197Z,498.00
2023-05-05T08:37:46.195Z,498.00
2023-05-05T08:38:46.182Z,504.00
2023-05-05T08:39:46.151Z,498.00
2023-05-05T08:40:46.255Z,1238.00
2023-05-05T08:41:46.253Z,2050.00
2023-05-05T08:42:46.336Z,2107.00
2023-05-05T08:43:46.379Z,2315.00
2023-05-05T08:44:46.342Z,2383.00
2023-05-05T08:45:46.348Z,2315.00
2023-05-05T08:46:46.396Z,2088.00
2023-05-05T08:47:46.521Z,2113.00
2023-05-05T08:48:46.454Z,2604.00
2023-05-05T08:49:46.475Z,2582.00
2023-05-05T08:50:46.480Z,2427.00
2023-05-05T08:51:46.503Z,2223.00
2023-05-05T08:53:46.861Z,1654.00
2023-05-05T08:54:46.546Z,1530.00
2023-05-05T08:55:46.645Z,1412.00
2023-05-05T08:56:46.625Z,1298.00
2023-05-05T08:57:46.629Z,1265.00
2023-05-05T08:58:47.300Z,1234.00
2023-05-05T08:59:48.049Z,1255.00
2023-05-05T09:00:46.800Z,1246.00
2023-05-05T09:01:46.809Z,1186.00
2023-05-05T09:02:46.929Z,1206.00
2023-05-05T09:03:47.350Z,1190.00
2023-05-05T09:04:46.832Z,1192.00
2023-05-05T09:05:46.937Z,1212.00
2023-05-05T09:06:46.943Z,1275.00
2023-05-05T09:07:47.061Z,1346.00
2023-05-05T09:08:47.375Z,1199.00
2023-05-05T09:09:46.969Z,1135.00
2023-05-05T09:10:47.015Z,1187.00
2023-05-05T09:11:47.036Z,1379.00
2023-05-05T09:12:47.131Z,1391.00
2023-05-05T09:13:47.309Z,1303.00
2023-05-05T09:14:47.150Z,1157.00
2023-05-05T09:15:47.219Z,1038.00
2023-05-05T09:16:47.232Z,1025.00
2023-05-05T09:17:47.325Z,1125.00
2023-05-05T09:18:47.355Z,1148.00
2023-05-05T09:19:47.237Z,1042.00
2023-05-05T09:20:47.282Z,1025.00
2023-05-05T09:21:47.334Z,1014.00
2023-05-05T09:22:47.429Z,1050.00
2023-05-05T09:23:47.836Z,1005.00
2023-05-05T09:24:47.437Z,1146.00
2023-05-05T09:25:47.454Z,1114.00
2023-05-05T09:26:47.434Z,1116.00
2023-05-05T09:27:47.446Z,1156.00
2023-05-05T09:28:47.889Z,1656.00
2023-05-05T09:29:47.487Z,2060.00
2023-05-05T09:30:47.528Z,2189.00
2023-05-05T09:31:47.621Z,1882.00
2023-05-05T09:32:47.555Z,1832.00
2023-05-05T09:33:47.856Z,1569.00
2023-05-05T09:34:47.569Z,1539.00
2023-05-05T09:35:48.485Z,1554.00
2023-05-05T09:36:47.520Z,1580.00
2023-05-05T09:37:47.481Z,1500.00
2023-05-05T09:38:47.481Z,1356.00
2023-05-05T09:39:47.560Z,1272.00
2023-05-05T09:40:47.495Z,1248.00
2023-05-05T09:41:47.447Z,1710.00
2023-05-05T09:42:47.498Z,2001.00
2023-05-05T09:43:47.862Z,2067.00
2023-05-05T09:44:47.469Z,1920.00
2023-05-05T09:45:47.454Z,2062.00
2023-05-05T09:46:47.526Z,2218.00
2023-05-05T09:47:48.078Z,1946.00
2023-05-05T09:48:47.856Z,1849.00
2023-05-05T09:49:47.675Z,1664.00
2023-05-05T09:50:47.731Z,2399.00
2023-05-05T09:51:47.774Z,1932.00
2023-05-05T09:52:48.164Z,1472.00
2023-05-05T09:53:47.904Z,1243.00
2023-05-05T09:54:47.922Z,1165.00
2023-05-05T09:55:47.959Z,1096.00
2023-05-05T09:56:47.908Z,1136.00
2023-05-05T09:57:47.925Z,1182.00
2023-05-05T09:58:48.459Z,1578.00
2023-05-05T09:59:47.943Z,1810.00
2023-05-05T10:00:48.019Z,1813.00
2023-05-05T10:01:48.020Z,1460.00
2023-05-05T10:02:48.030Z,1166.00
2023-05-05T10:03:48.046Z,891.00
2023-05-05T10:04:48.006Z,870.00
2023-05-05T10:05:48.013Z,955.00
2023-05-05T10:06:48.012Z,1589.00
2023-05-05T10:07:48.079Z,2145.00
2023-05-05T10:08:48.062Z,2328.00
2023-05-05T10:09:48.100Z,2127.00
2023-05-05T10:10:48.235Z,2064.00
2023-05-05T10:11:48.835Z,2165.00
2023-05-05T10:12:48.276Z,1721.00
2023-05-05T10:13:48.344Z,1390.00
2023-05-05T10:14:48.339Z,1049.00
2023-05-05T10:15:48.386Z,889.00
2023-05-05T10:16:48.416Z,803.00
2023-05-05T10:18:02.758Z,944.00
2023-05-05T10:18:49.462Z,885.00
2023-05-05T10:19:48.610Z,952.00
2023-05-05T10:20:48.418Z,667.00
2023-05-05T10:21:48.430Z,573.00
2023-05-05T10:22:48.404Z,588.00
2023-05-05T10:23:48.364Z,622.00
2023-05-05T10:24:48.397Z,1228.00
2023-05-05T10:25:48.390Z,1827.00
2023-05-05T10:26:48.398Z,1701.00
2023-05-05T10:27:48.452Z,1976.00
2023-05-05T10:28:48.882Z,1867.00
2023-05-05T10:29:48.475Z,1934.00
2023-05-05T10:30:48.518Z,1607.00
2023-05-05T10:31:48.606Z,1330.00
2023-05-05T10:32:59.971Z,1415.00
2023-05-05T10:33:49.658Z,1212.00
2023-05-05T10:34:48.624Z,1090.00
2023-05-05T10:35:48.663Z,947.00
2023-05-05T10:36:48.613Z,843.00
2023-05-05T10:37:48.626Z,951.00
2023-05-05T10:38:48.866Z,1228.00
2023-05-05T10:39:48.591Z,1061.00
2023-05-05T10:40:48.591Z,874.00
2023-05-05T10:41:48.637Z,788.00
2023-05-05T10:42:48.542Z,1155.00
2023-05-05T10:43:48.865Z,756.00
2023-05-05T10:44:48.605Z,1294.00
2023-05-05T10:45:48.638Z,1038.00
2023-05-05T10:46:48.530Z,1306.00
2023-05-05T10:47:48.652Z,1181.00
2023-05-05T10:48:48.938Z,1244.00
2023-05-05T10:49:48.533Z,1200.00
2023-05-05T10:50:48.489Z,1333.00
2023-05-05T10:51:48.530Z,1718.00
2023-05-05T10:52:48.495Z,1964.00
2023-05-05T10:53:48.581Z,2122.00
2023-05-05T10:54:48.560Z,1832.00
2023-05-05T10:55:48.634Z,1719.00
2023-05-05T10:56:48.579Z,1826.00
2023-05-05T10:57:48.643Z,1921.00
2023-05-05T10:58:59.717Z,1719.00
2023-05-05T10:59:49.643Z,1135.00
2023-05-05T11:00:49.191Z,1039.00
2023-05-05T11:01:48.628Z,938.00
2023-05-05T11:02:48.647Z,750.00
2023-05-05T11:03:48.700Z,1046.00
2023-05-05T11:04:49.444Z,1385.00
2023-05-05T11:05:48.582Z,1453.00
2023-05-05T11:06:48.561Z,1381.00
2023-05-05T11:07:48.691Z,1323.00
2023-05-05T11:08:48.551Z,1265.00
2023-05-05T11:09:48.589Z,1262.00
2023-05-05T11:10:48.634Z,1323.00
2023-05-05T11:11:48.558Z,1302.00
2023-05-05T11:12:48.569Z,1430.00
2023-05-05T11:13:48.524Z,1490.00
2023-05-05T11:14:48.901Z,1356.00
2023-05-05T11:15:48.550Z,1028.00
2023-05-05T11:16:48.553Z,1025.00
2023-05-05T11:17:48.613Z,1014.00
2023-05-05T11:18:48.476Z,1177.00
2023-05-05T11:19:48.550Z,1125.00
2023-05-05T11:20:48.477Z,1308.00
2023-05-05T11:21:48.456Z,1363.00
2023-05-05T11:22:48.440Z,1388.00
2023-05-05T11:23:48.497Z,1503.00
2023-05-05T11:24:48.494Z,1603.00
2023-05-05T11:25:48.449Z,1660.00
2023-05-05T11:26:48.433Z,1685.00
2023-05-05T11:27:48.468Z,1738.00
2023-05-05T11:28:48.465Z,1732.00
2023-05-05T11:29:50.294Z,1738.00
2023-05-05T11:30:48.487Z,1736.00
2023-05-05T11:31:48.448Z,1877.00
2023-05-05T11:32:48.534Z,1951.00
2023-05-05T11:33:48.463Z,1931.00
2023-05-05T11:34:48.860Z,1818.00
2023-05-05T11:35:48.412Z,1616.00
2023-05-05T11:36:48.434Z,1641.00
2023-05-05T11:37:48.430Z,1560.00
2023-05-05T11:38:48.385Z,1541.00
2023-05-05T11:39:48.968Z,1524.00
2023-05-05T11:40:48.411Z,1456.00
2023-05-05T11:41:48.401Z,1351.00
2023-05-05T11:42:48.361Z,1494.00
2023-05-05T11:43:48.382Z,1684.00
2023-05-05T11:44:48.377Z,2059.00
2023-05-05T11:45:48.394Z,1997.00
2023-05-05T11:46:48.327Z,1920.00
2023-05-05T11:47:48.356Z,1927.00
2023-05-05T11:48:48.309Z,1924.00
2023-05-05T11:49:48.305Z,1997.00
2023-05-05T11:50:48.325Z,2062.00
2023-05-05T11:51:48.328Z,2136.00
2023-05-05T11:52:48.268Z,2224.00
2023-05-05T11:53:48.270Z,2395.00
2023-05-05T11:54:48.299Z,2554.00
2023-05-05T11:55:48.358Z,2668.00
2023-05-05T11:56:48.268Z,2771.00
2023-05-05T11:57:48.240Z,2899.00
2023-05-05T11:58:48.209Z,2960.00
2023-05-05T11:59:49.554Z,3035.00
2023-05-05T12:00:48.224Z,3092.00
2023-05-05T12:01:48.208Z,3172.00
2023-05-05T12:02:48.277Z,3250.00
2023-05-05T12:03:48.358Z,3294.00
2023-05-05T12:04:48.211Z,3334.00
2023-05-05T12:05:48.214Z,3376.00
2023-05-05T12:06:48.205Z,3423.00
2023-05-05T12:07:48.156Z,3450.00
2023-05-05T12:08:48.158Z,3484.00
2023-05-05T12:09:48.144Z,3512.00
2023-05-05T12:10:48.209Z,3569.00
2023-05-05T12:11:48.117Z,3608.00
2023-05-05T12:12:48.550Z,3642.00
2023-05-05T12:13:48.145Z,3707.00